Pierce, Idaho
Current Conditions -  °F | °C
As of 4:55 PM on Friday 19 Dec 2014 (Local Time) from KGIC Reporting Station
Overcast Overcast  
Wind Chill: 33°   Ceiling: 9000
Heat Index: 38°   Visibility: 10mi
Dew Point: 32°   Wind: 7mph
Humidity: 79%   Direction: 240°WSW
Pressure: 30.04"   Gusts: NA
Location:  46.49°N, 115.8°W
Report Text: KGIC 200055Z AUTO 24006KT 10SM SCT026 BKN090 OVC120 03/00 A3004 RMK AO1 T00330000
Loading
Personal Weather Stations






























Interactive Weather Map New forecast layout! Learn more

10-Day Weather Forecast

Advertisements
Track Severe Weather on mobile